sensor_id;sensor_type;location;lat;lon;timestamp;temperature;humidity
6538;DHT22;3302;52.508;13.454;2022-11-28T00:00:16;4.20;99.90
6538;DHT22;3302;52.508;13.454;2022-11-28T00:02:41;4.20;99.90
6538;DHT22;3302;52.508;13.454;2022-11-28T00:05:11;4.10;99.90
6538;DHT22;3302;52.508;13.454;2022-11-28T00:07:37;4.00;99.90
6538;DHT22;3302;52.508;13.454;2022-11-28T00:10:03;4.00;99.90
6538;DHT22;3302;52.508;13.454;2022-11-28T00:12:29;4.10;99.90
6538;DHT22;3302;52.508;13.454;2022-11-28T00:14:55;4.10;99.90
6538;DHT22;3302;52.508;13.454;2022-11-28T00:17:20;4.00;99.90
6538;DHT22;3302;52.508;13.454;2022-11-28T00:19:46;4.00;99.90
6538;DHT22;3302;52.508;13.454;2022-11-28T00:22:12;4.00;99.90
6538;DHT22;3302;52.508;13.454;2022-11-28T00:24:38;4.00;99.90
6538;DHT22;3302;52.508;13.454;2022-11-28T00:27:04;4.00;99.90
6538;DHT22;3302;52.508;13.454;2022-11-28T00:29:30;4.00;99.90
6538;DHT22;3302;52.508;13.454;2022-11-28T00:31:55;4.00;99.90
6538;DHT22;3302;52.508;13.454;2022-11-28T00:34:21;3.90;99.90
6538;DHT22;3302;52.508;13.454;2022-11-28T00:36:47;3.90;99.90
6538;DHT22;3302;52.508;13.454;2022-11-28T00:39:14;3.90;99.90
6538;DHT22;3302;52.508;13.454;2022-11-28T00:41:41;4.00;99.90
6538;DHT22;3302;52.508;13.454;2022-11-28T00:44:07;4.00;99.90
6538;DHT22;3302;52.508;13.454;2022-11-28T00:46:32;3.90;99.90
6538;DHT22;3302;52.508;13.454;2022-11-28T00:48:58;3.90;99.90
6538;DHT22;3302;52.508;13.454;2022-11-28T00:51:29;3.80;99.90
6538;DHT22;3302;52.508;13.454;2022-11-28T00:53:57;3.80;99.90
6538;DHT22;3302;52.508;13.454;2022-11-28T00:56:38;3.80;99.90
6538;DHT22;3302;52.508;13.454;2022-11-28T00:59:04;3.80;99.90
6538;DHT22;3302;52.508;13.454;2022-11-28T01:01:36;3.80;99.90
6538;DHT22;3302;52.508;13.454;2022-11-28T01:04:05;3.80;99.90
6538;DHT22;3302;52.508;13.454;2022-11-28T01:06:39;3.80;99.90
6538;DHT22;3302;52.508;13.454;2022-11-28T01:09:14;3.90;99.90
6538;DHT22;3302;52.508;13.454;2022-11-28T01:11:41;4.00;99.90
6538;DHT22;3302;52.508;13.454;2022-11-28T01:14:08;3.80;99.90
6538;DHT22;3302;52.508;13.454;2022-11-28T01:16:34;3.80;99.90
6538;DHT22;3302;52.508;13.454;2022-11-28T01:18:59;3.80;99.90
6538;DHT22;3302;52.508;13.454;2022-11-28T01:21:26;3.80;99.90
6538;DHT22;3302;52.508;13.454;2022-11-28T01:23:52;3.90;99.90
6538;DHT22;3302;52.508;13.454;2022-11-28T01:26:23;3.90;99.90
6538;DHT22;3302;52.508;13.454;2022-11-28T01:28:50;3.80;99.90
6538;DHT22;3302;52.508;13.454;2022-11-28T01:31:18;3.70;99.90
6538;DHT22;3302;52.508;13.454;2022-11-28T01:33:44;3.80;99.90
6538;DHT22;3302;52.508;13.454;2022-11-28T01:36:12;3.70;99.90
6538;DHT22;3302;52.508;13.454;2022-11-28T01:38:38;3.70;99.90
6538;DHT22;3302;52.508;13.454;2022-11-28T01:41:04;3.80;99.90
6538;DHT22;3302;52.508;13.454;2022-11-28T01:43:30;3.80;99.90
6538;DHT22;3302;52.508;13.454;2022-11-28T01:45:56;3.80;99.90
6538;DHT22;3302;52.508;13.454;2022-11-28T01:48:26;3.60;99.90
6538;DHT22;3302;52.508;13.454;2022-11-28T01:50:56;3.70;99.90
6538;DHT22;3302;52.508;13.454;2022-11-28T01:53:22;3.60;99.90
6538;DHT22;3302;52.508;13.454;2022-11-28T01:56:01;3.60;99.90
6538;DHT22;3302;52.508;13.454;2022-11-28T01:58:28;3.60;99.90
6538;DHT22;3302;52.508;13.454;2022-11-28T02:00:55;3.70;99.90
6538;DHT22;3302;52.508;13.454;2022-11-28T02:03:25;3.70;99.90
6538;DHT22;3302;52.508;13.454;2022-11-28T02:05:52;3.60;99.90
6538;DHT22;3302;52.508;13.454;2022-11-28T02:08:18;3.60;99.90
6538;DHT22;3302;52.508;13.454;2022-11-28T02:16:34;3.60;99.90
6538;DHT22;3302;52.508;13.454;2022-11-28T02:19:30;3.60;99.90
6538;DHT22;3302;52.508;13.454;2022-11-28T02:22:15;3.60;99.90
6538;DHT22;3302;52.508;13.454;2022-11-28T02:27:51;3.60;99.90
6538;DHT22;3302;52.508;13.454;2022-11-28T02:36:19;3.60;99.90
6538;DHT22;3302;52.508;13.454;2022-11-28T02:41:37;3.60;99.90
6538;DHT22;3302;52.508;13.454;2022-11-28T02:44:13;3.60;99.90
6538;DHT22;3302;52.508;13.454;2022-11-28T02:49:35;3.50;99.90
6538;DHT22;3302;52.508;13.454;2022-11-28T02:52:09;3.50;99.90
6538;DHT22;3302;52.508;13.454;2022-11-28T02:54:37;3.60;99.90
6538;DHT22;3302;52.508;13.454;2022-11-28T02:57:03;3.60;99.90
6538;DHT22;3302;52.508;13.454;2022-11-28T03:02:09;3.50;99.90
6538;DHT22;3302;52.508;13.454;2022-11-28T03:05:02;3.50;99.90
6538;DHT22;3302;52.508;13.454;2022-11-28T03:18:25;3.50;99.90
6538;DHT22;3302;52.508;13.454;2022-11-28T03:20:59;3.50;99.90
6538;DHT22;3302;52.508;13.454;2022-11-28T03:23:56;3.50;99.90
6538;DHT22;3302;52.508;13.454;2022-11-28T03:29:00;3.50;99.90
6538;DHT22;3302;52.508;13.454;2022-11-28T03:31:36;3.40;99.90
6538;DHT22;3302;52.508;13.454;2022-11-28T03:34:05;3.40;99.90
6538;DHT22;3302;52.508;13.454;2022-11-28T03:37:00;3.40;99.90
6538;DHT22;3302;52.508;13.454;2022-11-28T03:39:37;3.50;99.90
6538;DHT22;3302;52.508;13.454;2022-11-28T03:42:10;3.50;99.90
6538;DHT22;3302;52.508;13.454;2022-11-28T03:44:57;3.50;99.90
6538;DHT22;3302;52.508;13.454;2022-11-28T03:47:28;3.50;99.90
6538;DHT22;3302;52.508;13.454;2022-11-28T03:49:55;3.50;99.90
6538;DHT22;3302;52.508;13.454;2022-11-28T03:52:28;3.50;99.90
6538;DHT22;3302;52.508;13.454;2022-11-28T03:54:57;3.40;99.90
6538;DHT22;3302;52.508;13.454;2022-11-28T03:57:35;3.50;99.90
6538;DHT22;3302;52.508;13.454;2022-11-28T04:00:05;3.60;99.90
6538;DHT22;3302;52.508;13.454;2022-11-28T04:05:21;3.50;99.90
6538;DHT22;3302;52.508;13.454;2022-11-28T04:08:26;3.60;99.90
6538;DHT22;3302;52.508;13.454;2022-11-28T04:11:14;3.50;99.90
6538;DHT22;3302;52.508;13.454;2022-11-28T04:13:59;3.50;99.90
6538;DHT22;3302;52.508;13.454;2022-11-28T04:16:33;3.50;99.90
6538;DHT22;3302;52.508;13.454;2022-11-28T04:19:31;3.50;99.90
6538;DHT22;3302;52.508;13.454;2022-11-28T04:22:06;3.50;99.90
6538;DHT22;3302;52.508;13.454;2022-11-28T04:24:39;3.50;99.90
6538;DHT22;3302;52.508;13.454;2022-11-28T04:27:10;3.50;99.90
6538;DHT22;3302;52.508;13.454;2022-11-28T04:29:43;3.50;99.90
6538;DHT22;3302;52.508;13.454;2022-11-28T04:32:11;3.40;99.90
6538;DHT22;3302;52.508;13.454;2022-11-28T04:34:41;3.40;99.90
6538;DHT22;3302;52.508;13.454;2022-11-28T04:37:08;3.40;99.90
6538;DHT22;3302;52.508;13.454;2022-11-28T04:39:35;3.40;99.90
6538;DHT22;3302;52.508;13.454;2022-11-28T04:42:09;3.40;99.90
6538;DHT22;3302;52.508;13.454;2022-11-28T04:45:01;3.40;99.90
6538;DHT22;3302;52.508;13.454;2022-11-28T04:47:24;3.40;99.90
6538;DHT22;3302;52.508;13.454;2022-11-28T04:49:51;3.40;99.90
6538;DHT22;3302;52.508;13.454;2022-11-28T04:52:19;3.40;99.90
6538;DHT22;3302;52.508;13.454;2022-11-28T04:54:50;3.40;99.90
6538;DHT22;3302;52.508;13.454;2022-11-28T04:59:50;3.40;99.90
6538;DHT22;3302;52.508;13.454;2022-11-28T05:02:17;3.40;99.90
6538;DHT22;3302;52.508;13.454;2022-11-28T05:04:43;3.40;99.90
6538;DHT22;3302;52.508;13.454;2022-11-28T05:07:09;3.40;99.90
6538;DHT22;3302;52.508;13.454;2022-11-28T05:09:35;3.40;99.90
6538;DHT22;3302;52.508;13.454;2022-11-28T05:12:02;3.40;99.90
6538;DHT22;3302;52.508;13.454;2022-11-28T05:14:27;3.50;99.90
6538;DHT22;3302;52.508;13.454;2022-11-28T05:16:53;3.50;99.90
6538;DHT22;3302;52.508;13.454;2022-11-28T05:19:19;3.60;99.90
6538;DHT22;3302;52.508;13.454;2022-11-28T05:21:45;3.50;99.90
6538;DHT22;3302;52.508;13.454;2022-11-28T05:24:11;3.50;99.90
6538;DHT22;3302;52.508;13.454;2022-11-28T05:26:37;3.50;99.90
6538;DHT22;3302;52.508;13.454;2022-11-28T05:29:03;3.50;99.90
6538;DHT22;3302;52.508;13.454;2022-11-28T05:31:29;3.50;99.90
6538;DHT22;3302;52.508;13.454;2022-11-28T05:33:56;3.50;99.90
6538;DHT22;3302;52.508;13.454;2022-11-28T05:36:22;3.50;99.90
6538;DHT22;3302;52.508;13.454;2022-11-28T05:38:48;3.40;99.90
6538;DHT22;3302;52.508;13.454;2022-11-28T05:41:25;3.50;99.90
6538;DHT22;3302;52.508;13.454;2022-11-28T05:43:51;3.50;99.90
6538;DHT22;3302;52.508;13.454;2022-11-28T05:46:18;3.60;99.90
6538;DHT22;3302;52.508;13.454;2022-11-28T05:48:44;3.60;99.90
6538;DHT22;3302;52.508;13.454;2022-11-28T05:51:10;3.60;99.90
6538;DHT22;3302;52.508;13.454;2022-11-28T05:53:36;3.50;99.90
6538;DHT22;3302;52.508;13.454;2022-11-28T05:56:06;3.50;99.90
6538;DHT22;3302;52.508;13.454;2022-11-28T05:58:32;3.50;99.90
6538;DHT22;3302;52.508;13.454;2022-11-28T06:00:58;3.50;99.90
6538;DHT22;3302;52.508;13.454;2022-11-28T06:03:24;3.50;99.90
6538;DHT22;3302;52.508;13.454;2022-11-28T06:05:49;3.50;99.90
6538;DHT22;3302;52.508;13.454;2022-11-28T06:08:15;3.50;99.90
6538;DHT22;3302;52.508;13.454;2022-11-28T06:10:41;3.60;99.90
6538;DHT22;3302;52.508;13.454;2022-11-28T06:13:07;3.60;99.90
6538;DHT22;3302;52.508;13.454;2022-11-28T06:15:33;3.60;99.90
6538;DHT22;3302;52.508;13.454;2022-11-28T06:17:59;3.60;99.90
6538;DHT22;3302;52.508;13.454;2022-11-28T06:20:25;3.60;99.90
6538;DHT22;3302;52.508;13.454;2022-11-28T06:22:51;3.50;99.90
6538;DHT22;3302;52.508;13.454;2022-11-28T06:25:17;3.50;99.90
6538;DHT22;3302;52.508;13.454;2022-11-28T06:27:43;3.50;99.90
6538;DHT22;3302;52.508;13.454;2022-11-28T06:30:09;3.50;99.90
6538;DHT22;3302;52.508;13.454;2022-11-28T06:32:34;3.50;99.90
6538;DHT22;3302;52.508;13.454;2022-11-28T06:35:00;3.40;99.90
6538;DHT22;3302;52.508;13.454;2022-11-28T06:37:27;3.40;99.90
6538;DHT22;3302;52.508;13.454;2022-11-28T06:39:52;3.50;99.90
6538;DHT22;3302;52.508;13.454;2022-11-28T06:42:18;3.60;99.90
6538;DHT22;3302;52.508;13.454;2022-11-28T06:44:44;3.60;99.90
6538;DHT22;3302;52.508;13.454;2022-11-28T06:47:10;3.40;99.90
6538;DHT22;3302;52.508;13.454;2022-11-28T06:49:36;3.40;99.90
6538;DHT22;3302;52.508;13.454;2022-11-28T06:52:02;3.30;99.90
6538;DHT22;3302;52.508;13.454;2022-11-28T06:54:28;3.40;99.90
6538;DHT22;3302;52.508;13.454;2022-11-28T06:56:53;3.40;99.90
6538;DHT22;3302;52.508;13.454;2022-11-28T06:59:19;3.40;99.90
6538;DHT22;3302;52.508;13.454;2022-11-28T07:01:45;3.40;99.90
6538;DHT22;3302;52.508;13.454;2022-11-28T07:04:11;3.30;99.90
6538;DHT22;3302;52.508;13.454;2022-11-28T07:06:37;3.30;99.90
6538;DHT22;3302;52.508;13.454;2022-11-28T07:09:03;3.30;99.90
6538;DHT22;3302;52.508;13.454;2022-11-28T07:11:30;3.30;99.90
6538;DHT22;3302;52.508;13.454;2022-11-28T07:13:57;3.50;99.90
6538;DHT22;3302;52.508;13.454;2022-11-28T07:16:26;3.50;99.90
6538;DHT22;3302;52.508;13.454;2022-11-28T07:18:54;3.40;99.90
6538;DHT22;3302;52.508;13.454;2022-11-28T07:21:21;3.40;99.90
6538;DHT22;3302;52.508;13.454;2022-11-28T07:23:47;3.30;99.90
6538;DHT22;3302;52.508;13.454;2022-11-28T07:26:14;3.30;99.90
6538;DHT22;3302;52.508;13.454;2022-11-28T07:28:41;3.30;99.90
6538;DHT22;3302;52.508;13.454;2022-11-28T07:31:09;3.30;99.90
6538;DHT22;3302;52.508;13.454;2022-11-28T07:33:37;3.30;99.90
6538;DHT22;3302;52.508;13.454;2022-11-28T07:36:04;3.30;99.90
6538;DHT22;3302;52.508;13.454;2022-11-28T07:38:31;3.30;99.90
6538;DHT22;3302;52.508;13.454;2022-11-28T07:41:11;3.30;99.90
6538;DHT22;3302;52.508;13.454;2022-11-28T07:43:39;3.30;99.90
6538;DHT22;3302;52.508;13.454;2022-11-28T07:46:07;3.40;99.90
6538;DHT22;3302;52.508;13.454;2022-11-28T07:48:34;3.40;99.90
6538;DHT22;3302;52.508;13.454;2022-11-28T07:51:14;3.40;99.90
6538;DHT22;3302;52.508;13.454;2022-11-28T07:53:40;3.50;99.90
6538;DHT22;3302;52.508;13.454;2022-11-28T07:56:08;3.50;99.90
6538;DHT22;3302;52.508;13.454;2022-11-28T07:58:35;3.60;99.90
6538;DHT22;3302;52.508;13.454;2022-11-28T08:01:08;3.60;99.90
6538;DHT22;3302;52.508;13.454;2022-11-28T08:03:34;3.50;99.90
6538;DHT22;3302;52.508;13.454;2022-11-28T08:06:00;3.50;99.90
6538;DHT22;3302;52.508;13.454;2022-11-28T08:08:26;3.50;99.90
6538;DHT22;3302;52.508;13.454;2022-11-28T08:10:59;3.60;99.90
6538;DHT22;3302;52.508;13.454;2022-11-28T08:13:26;3.50;99.90
6538;DHT22;3302;52.508;13.454;2022-11-28T08:15:52;3.60;99.90
6538;DHT22;3302;52.508;13.454;2022-11-28T08:18:18;3.70;99.90
6538;DHT22;3302;52.508;13.454;2022-11-28T08:20:44;3.70;99.90
6538;DHT22;3302;52.508;13.454;2022-11-28T08:23:10;3.60;99.90
6538;DHT22;3302;52.508;13.454;2022-11-28T08:25:35;3.60;99.90
6538;DHT22;3302;52.508;13.454;2022-11-28T08:28:01;3.60;99.90
6538;DHT22;3302;52.508;13.454;2022-11-28T08:30:27;3.60;99.90
6538;DHT22;3302;52.508;13.454;2022-11-28T08:32:53;3.70;99.90
6538;DHT22;3302;52.508;13.454;2022-11-28T08:35:19;3.70;99.90
6538;DHT22;3302;52.508;13.454;2022-11-28T08:37:45;3.80;99.90
6538;DHT22;3302;52.508;13.454;2022-11-28T08:40:11;3.70;99.90
6538;DHT22;3302;52.508;13.454;2022-11-28T08:42:37;3.70;99.90
6538;DHT22;3302;52.508;13.454;2022-11-28T08:45:04;3.80;99.90
6538;DHT22;3302;52.508;13.454;2022-11-28T08:47:31;3.80;99.90
6538;DHT22;3302;52.508;13.454;2022-11-28T08:49:56;3.80;99.90
6538;DHT22;3302;52.508;13.454;2022-11-28T08:52:23;3.80;99.90
6538;DHT22;3302;52.508;13.454;2022-11-28T08:54:49;3.90;99.90
6538;DHT22;3302;52.508;13.454;2022-11-28T08:57:15;3.90;99.90
6538;DHT22;3302;52.508;13.454;2022-11-28T08:59:40;3.80;99.90
6538;DHT22;3302;52.508;13.454;2022-11-28T09:02:09;3.90;99.90
6538;DHT22;3302;52.508;13.454;2022-11-28T09:04:35;3.90;99.90
6538;DHT22;3302;52.508;13.454;2022-11-28T09:07:02;3.90;99.90
6538;DHT22;3302;52.508;13.454;2022-11-28T09:09:28;4.00;99.90
6538;DHT22;3302;52.508;13.454;2022-11-28T09:11:53;4.00;99.90
6538;DHT22;3302;52.508;13.454;2022-11-28T09:14:20;4.00;99.90
6538;DHT22;3302;52.508;13.454;2022-11-28T09:16:45;4.00;99.90
6538;DHT22;3302;52.508;13.454;2022-11-28T09:19:11;4.00;99.90
6538;DHT22;3302;52.508;13.454;2022-11-28T09:21:37;4.10;99.90
6538;DHT22;3302;52.508;13.454;2022-11-28T09:24:04;4.10;99.90
6538;DHT22;3302;52.508;13.454;2022-11-28T09:26:30;4.20;99.90
6538;DHT22;3302;52.508;13.454;2022-11-28T09:28:56;4.20;99.90
6538;DHT22;3302;52.508;13.454;2022-11-28T09:31:22;4.00;99.90
6538;DHT22;3302;52.508;13.454;2022-11-28T09:33:47;4.00;99.90
6538;DHT22;3302;52.508;13.454;2022-11-28T09:36:19;4.10;99.90
6538;DHT22;3302;52.508;13.454;2022-11-28T09:38:45;4.10;99.90
6538;DHT22;3302;52.508;13.454;2022-11-28T09:44:15;4.10;99.90
6538;DHT22;3302;52.508;13.454;2022-11-28T09:46:43;4.20;99.90
6538;DHT22;3302;52.508;13.454;2022-11-28T09:49:21;4.20;99.90
6538;DHT22;3302;52.508;13.454;2022-11-28T09:51:50;4.20;99.90
6538;DHT22;3302;52.508;13.454;2022-11-28T09:56:55;4.30;99.90
6538;DHT22;3302;52.508;13.454;2022-11-28T09:59:27;4.30;99.90
6538;DHT22;3302;52.508;13.454;2022-11-28T10:02:15;4.30;99.90
6538;DHT22;3302;52.508;13.454;2022-11-28T10:12:42;4.50;99.90
6538;DHT22;3302;52.508;13.454;2022-11-28T10:16:00;4.60;99.90
6538;DHT22;3302;52.508;13.454;2022-11-28T10:18:36;4.60;99.90
6538;DHT22;3302;52.508;13.454;2022-11-28T10:24:20;4.60;99.90
6538;DHT22;3302;52.508;13.454;2022-11-28T10:26:50;4.60;99.90
6538;DHT22;3302;52.508;13.454;2022-11-28T10:29:23;4.60;99.90
6538;DHT22;3302;52.508;13.454;2022-11-28T10:31:53;4.60;99.90
6538;DHT22;3302;52.508;13.454;2022-11-28T10:34:36;4.60;99.90
6538;DHT22;3302;52.508;13.454;2022-11-28T10:37:08;4.70;99.90
6538;DHT22;3302;52.508;13.454;2022-11-28T10:39:42;4.70;99.90
6538;DHT22;3302;52.508;13.454;2022-11-28T10:42:26;4.80;99.90
6538;DHT22;3302;52.508;13.454;2022-11-28T10:45:02;4.70;99.90
6538;DHT22;3302;52.508;13.454;2022-11-28T10:50:48;4.80;99.90
6538;DHT22;3302;52.508;13.454;2022-11-28T10:56:08;4.80;99.90
6538;DHT22;3302;52.508;13.454;2022-11-28T10:58:49;4.80;99.90
6538;DHT22;3302;52.508;13.454;2022-11-28T11:01:17;4.90;99.90
6538;DHT22;3302;52.508;13.454;2022-11-28T11:03:43;4.90;99.90
6538;DHT22;3302;52.508;13.454;2022-11-28T11:06:09;4.90;99.90
6538;DHT22;3302;52.508;13.454;2022-11-28T11:08:36;4.90;99.90
6538;DHT22;3302;52.508;13.454;2022-11-28T11:11:23;4.90;99.90
6538;DHT22;3302;52.508;13.454;2022-11-28T11:14:05;4.90;99.90
6538;DHT22;3302;52.508;13.454;2022-11-28T11:16:51;5.00;99.90
6538;DHT22;3302;52.508;13.454;2022-11-28T11:19:37;5.00;99.90
6538;DHT22;3302;52.508;13.454;2022-11-28T11:22:24;5.10;99.90
6538;DHT22;3302;52.508;13.454;2022-11-28T11:25:13;5.10;99.90
6538;DHT22;3302;52.508;13.454;2022-11-28T11:27:57;5.30;99.90
6538;DHT22;3302;52.508;13.454;2022-11-28T11:30:34;5.40;99.90
6538;DHT22;3302;52.508;13.454;2022-11-28T11:33:05;5.50;99.90
6538;DHT22;3302;52.508;13.454;2022-11-28T11:35:42;5.40;99.90
6538;DHT22;3302;52.508;13.454;2022-11-28T11:40:41;5.30;99.90
6538;DHT22;3302;52.508;13.454;2022-11-28T11:43:24;5.30;99.90
6538;DHT22;3302;52.508;13.454;2022-11-28T11:46:04;5.30;99.90
6538;DHT22;3302;52.508;13.454;2022-11-28T11:48:42;5.40;99.90
6538;DHT22;3302;52.508;13.454;2022-11-28T11:51:29;5.30;99.90
6538;DHT22;3302;52.508;13.454;2022-11-28T11:56:33;5.50;99.90
6538;DHT22;3302;52.508;13.454;2022-11-28T11:59:02;5.50;99.90
6538;DHT22;3302;52.508;13.454;2022-11-28T12:01:30;5.50;99.90
6538;DHT22;3302;52.508;13.454;2022-11-28T12:04:02;5.50;99.90
6538;DHT22;3302;52.508;13.454;2022-11-28T12:06:39;5.50;99.90
6538;DHT22;3302;52.508;13.454;2022-11-28T12:12:14;5.60;99.90
6538;DHT22;3302;52.508;13.454;2022-11-28T12:14:41;5.70;99.90
6538;DHT22;3302;52.508;13.454;2022-11-28T12:17:31;5.70;99.90
6538;DHT22;3302;52.508;13.454;2022-11-28T12:22:53;5.70;99.90
6538;DHT22;3302;52.508;13.454;2022-11-28T12:25:42;5.80;99.90
6538;DHT22;3302;52.508;13.454;2022-11-28T12:34:02;5.80;99.90
6538;DHT22;3302;52.508;13.454;2022-11-28T12:36:36;5.70;99.90
6538;DHT22;3302;52.508;13.454;2022-11-28T12:42:09;5.90;99.90
6538;DHT22;3302;52.508;13.454;2022-11-28T12:44:56;5.90;99.90
6538;DHT22;3302;52.508;13.454;2022-11-28T12:50:32;5.60;99.90
6538;DHT22;3302;52.508;13.454;2022-11-28T12:53:33;5.70;99.90
6538;DHT22;3302;52.508;13.454;2022-11-28T12:56:25;5.70;99.90
6538;DHT22;3302;52.508;13.454;2022-11-28T13:05:02;5.90;99.90
6538;DHT22;3302;52.508;13.454;2022-11-28T13:07:36;5.90;99.90
6538;DHT22;3302;52.508;13.454;2022-11-28T13:10:25;5.80;99.90
6538;DHT22;3302;52.508;13.454;2022-11-28T13:20:57;5.80;99.90
6538;DHT22;3302;52.508;13.454;2022-11-28T13:23:41;5.70;99.90
6538;DHT22;3302;52.508;13.454;2022-11-28T13:28:59;5.50;99.90
6538;DHT22;3302;52.508;13.454;2022-11-28T13:31:37;5.50;99.90
6538;DHT22;3302;52.508;13.454;2022-11-28T13:34:12;5.50;99.90
6538;DHT22;3302;52.508;13.454;2022-11-28T13:36:53;5.50;99.90
6538;DHT22;3302;52.508;13.454;2022-11-28T13:42:01;5.50;99.90
6538;DHT22;3302;52.508;13.454;2022-11-28T13:44:37;5.60;99.90
6538;DHT22;3302;52.508;13.454;2022-11-28T13:47:38;5.70;99.90
6538;DHT22;3302;52.508;13.454;2022-11-28T13:50:35;5.70;99.90
6538;DHT22;3302;52.508;13.454;2022-11-28T13:55:42;5.40;99.90
6538;DHT22;3302;52.508;13.454;2022-11-28T14:01:15;5.60;99.90
6538;DHT22;3302;52.508;13.454;2022-11-28T14:06:23;5.50;99.90
6538;DHT22;3302;52.508;13.454;2022-11-28T14:09:03;5.40;99.90
6538;DHT22;3302;52.508;13.454;2022-11-28T14:20:11;5.20;99.90
6538;DHT22;3302;52.508;13.454;2022-11-28T14:25:43;5.30;99.90
6538;DHT22;3302;52.508;13.454;2022-11-28T14:30:47;5.40;99.90
6538;DHT22;3302;52.508;13.454;2022-11-28T14:33:24;5.30;99.90
6538;DHT22;3302;52.508;13.454;2022-11-28T14:43:34;5.20;99.90
6538;DHT22;3302;52.508;13.454;2022-11-28T14:56:53;4.90;99.90
6538;DHT22;3302;52.508;13.454;2022-11-28T14:59:24;4.80;99.90
6538;DHT22;3302;52.508;13.454;2022-11-28T15:05:12;4.90;99.90
6538;DHT22;3302;52.508;13.454;2022-11-28T15:15:52;4.70;99.90
6538;DHT22;3302;52.508;13.454;2022-11-28T15:18:19;4.70;99.90
6538;DHT22;3302;52.508;13.454;2022-11-28T15:20:50;4.70;99.90
6538;DHT22;3302;52.508;13.454;2022-11-28T15:23:36;4.80;99.90
6538;DHT22;3302;52.508;13.454;2022-11-28T15:26:05;4.80;99.90
6538;DHT22;3302;52.508;13.454;2022-11-28T15:28:32;4.80;99.90
6538;DHT22;3302;52.508;13.454;2022-11-28T15:31:03;4.80;99.90
6538;DHT22;3302;52.508;13.454;2022-11-28T15:33:31;4.80;99.90
6538;DHT22;3302;52.508;13.454;2022-11-28T15:36:06;4.80;99.90
6538;DHT22;3302;52.508;13.454;2022-11-28T15:38:37;4.70;99.90
6538;DHT22;3302;52.508;13.454;2022-11-28T15:41:05;4.70;99.90
6538;DHT22;3302;52.508;13.454;2022-11-28T15:43:31;4.70;99.90
6538;DHT22;3302;52.508;13.454;2022-11-28T15:45:59;4.70;99.90
6538;DHT22;3302;52.508;13.454;2022-11-28T15:48:37;4.70;99.90
6538;DHT22;3302;52.508;13.454;2022-11-28T15:51:05;4.70;99.90
6538;DHT22;3302;52.508;13.454;2022-11-28T15:53:31;4.60;99.90
6538;DHT22;3302;52.508;13.454;2022-11-28T15:56:14;4.50;99.90
6538;DHT22;3302;52.508;13.454;2022-11-28T15:58:42;4.60;99.90
6538;DHT22;3302;52.508;13.454;2022-11-28T16:01:21;4.60;99.90
6538;DHT22;3302;52.508;13.454;2022-11-28T16:04:05;4.60;99.90
6538;DHT22;3302;52.508;13.454;2022-11-28T16:06:33;4.60;99.90
6538;DHT22;3302;52.508;13.454;2022-11-28T16:09:06;4.60;99.90
6538;DHT22;3302;52.508;13.454;2022-11-28T16:11:33;4.50;99.90
6538;DHT22;3302;52.508;13.454;2022-11-28T16:14:06;4.60;99.90
6538;DHT22;3302;52.508;13.454;2022-11-28T16:16:35;4.40;99.90
6538;DHT22;3302;52.508;13.454;2022-11-28T16:19:04;4.30;99.90
6538;DHT22;3302;52.508;13.454;2022-11-28T16:21:42;4.30;99.90
6538;DHT22;3302;52.508;13.454;2022-11-28T16:24:45;4.40;99.90
6538;DHT22;3302;52.508;13.454;2022-11-28T16:27:34;4.40;99.90
6538;DHT22;3302;52.508;13.454;2022-11-28T16:30:23;4.30;99.90
6538;DHT22;3302;52.508;13.454;2022-11-28T16:32:48;4.10;99.90
6538;DHT22;3302;52.508;13.454;2022-11-28T16:35:28;4.10;99.90
6538;DHT22;3302;52.508;13.454;2022-11-28T16:38:19;4.20;99.90
6538;DHT22;3302;52.508;13.454;2022-11-28T16:40:46;4.20;99.90
6538;DHT22;3302;52.508;13.454;2022-11-28T16:43:32;4.30;99.90
6538;DHT22;3302;52.508;13.454;2022-11-28T16:46:00;4.30;99.90
6538;DHT22;3302;52.508;13.454;2022-11-28T16:48:29;4.30;99.90
6538;DHT22;3302;52.508;13.454;2022-11-28T16:53:47;4.30;99.90
6538;DHT22;3302;52.508;13.454;2022-11-28T17:01:32;4.20;99.90
6538;DHT22;3302;52.508;13.454;2022-11-28T17:03:59;4.30;99.90
6538;DHT22;3302;52.508;13.454;2022-11-28T17:06:27;4.20;99.90
6538;DHT22;3302;52.508;13.454;2022-11-28T17:08:55;3.90;99.90
6538;DHT22;3302;52.508;13.454;2022-11-28T17:11:24;3.90;99.90
6538;DHT22;3302;52.508;13.454;2022-11-28T17:13:51;3.90;99.90
6538;DHT22;3302;52.508;13.454;2022-11-28T17:16:22;3.90;99.90
6538;DHT22;3302;52.508;13.454;2022-11-28T17:18:49;3.90;99.90
6538;DHT22;3302;52.508;13.454;2022-11-28T17:21:17;4.00;99.90
6538;DHT22;3302;52.508;13.454;2022-11-28T17:23:43;3.90;99.90
6538;DHT22;3302;52.508;13.454;2022-11-28T17:26:09;3.90;99.90
6538;DHT22;3302;52.508;13.454;2022-11-28T17:28:36;4.00;99.90
6538;DHT22;3302;52.508;13.454;2022-11-28T17:31:02;4.00;99.90
6538;DHT22;3302;52.508;13.454;2022-11-28T17:33:28;4.10;99.90
6538;DHT22;3302;52.508;13.454;2022-11-28T17:35:56;3.90;99.90
6538;DHT22;3302;52.508;13.454;2022-11-28T17:38:22;3.90;99.90
6538;DHT22;3302;52.508;13.454;2022-11-28T17:40:48;3.90;99.90
6538;DHT22;3302;52.508;13.454;2022-11-28T17:43:19;3.80;99.90
6538;DHT22;3302;52.508;13.454;2022-11-28T17:45:45;3.80;99.90
6538;DHT22;3302;52.508;13.454;2022-11-28T17:48:12;3.90;99.90
6538;DHT22;3302;52.508;13.454;2022-11-28T17:50:49;3.80;99.90
6538;DHT22;3302;52.508;13.454;2022-11-28T17:53:18;4.00;99.90
6538;DHT22;3302;52.508;13.454;2022-11-28T17:55:45;4.00;99.90
6538;DHT22;3302;52.508;13.454;2022-11-28T17:58:20;3.90;99.90
6538;DHT22;3302;52.508;13.454;2022-11-28T18:00:48;4.00;99.90
6538;DHT22;3302;52.508;13.454;2022-11-28T18:03:15;4.10;99.90
6538;DHT22;3302;52.508;13.454;2022-11-28T18:05:47;4.10;99.90
6538;DHT22;3302;52.508;13.454;2022-11-28T18:08:14;4.00;99.90
6538;DHT22;3302;52.508;13.454;2022-11-28T18:10:40;4.00;99.90
6538;DHT22;3302;52.508;13.454;2022-11-28T18:13:07;4.10;99.90
6538;DHT22;3302;52.508;13.454;2022-11-28T18:15:35;4.20;99.90
6538;DHT22;3302;52.508;13.454;2022-11-28T18:18:02;4.10;99.90
6538;DHT22;3302;52.508;13.454;2022-11-28T18:20:29;4.10;99.90
6538;DHT22;3302;52.508;13.454;2022-11-28T18:22:57;4.10;99.90
6538;DHT22;3302;52.508;13.454;2022-11-28T18:25:24;4.10;99.90
6538;DHT22;3302;52.508;13.454;2022-11-28T18:27:50;4.00;99.90
6538;DHT22;3302;52.508;13.454;2022-11-28T18:30:16;4.10;99.90
6538;DHT22;3302;52.508;13.454;2022-11-28T18:32:43;4.10;99.90
6538;DHT22;3302;52.508;13.454;2022-11-28T18:35:09;4.00;99.90
6538;DHT22;3302;52.508;13.454;2022-11-28T18:37:35;4.00;99.90
6538;DHT22;3302;52.508;13.454;2022-11-28T18:40:01;4.00;99.90
6538;DHT22;3302;52.508;13.454;2022-11-28T18:42:27;3.90;99.90
6538;DHT22;3302;52.508;13.454;2022-11-28T18:44:53;3.80;99.90
6538;DHT22;3302;52.508;13.454;2022-11-28T18:47:19;3.80;99.90
6538;DHT22;3302;52.508;13.454;2022-11-28T18:49:45;4.00;99.90
6538;DHT22;3302;52.508;13.454;2022-11-28T18:52:10;3.90;99.90
6538;DHT22;3302;52.508;13.454;2022-11-28T18:54:36;4.10;99.90
6538;DHT22;3302;52.508;13.454;2022-11-28T18:57:06;4.00;99.90
6538;DHT22;3302;52.508;13.454;2022-11-28T18:59:32;4.00;99.90
6538;DHT22;3302;52.508;13.454;2022-11-28T19:01:58;4.10;99.90
6538;DHT22;3302;52.508;13.454;2022-11-28T19:04:24;4.00;99.90
6538;DHT22;3302;52.508;13.454;2022-11-28T19:06:50;3.90;99.90
6538;DHT22;3302;52.508;13.454;2022-11-28T19:09:16;4.00;99.90
6538;DHT22;3302;52.508;13.454;2022-11-28T19:11:43;4.10;99.90